sensor_id;sensor_type;location;lat;lon;timestamp;P1;durP1;ratioP1;P2;durP2;ratioP2
35364;SDS011;21464;48.112;11.530;2023-07-13T00:00:29;4.60;;;3.80;;
35364;SDS011;21464;48.112;11.530;2023-07-13T00:02:58;4.47;;;4.15;;
35364;SDS011;21464;48.112;11.530;2023-07-13T00:05:24;4.07;;;3.70;;
35364;SDS011;21464;48.112;11.530;2023-07-13T00:07:50;4.63;;;4.22;;
35364;SDS011;21464;48.112;11.530;2023-07-13T00:10:17;4.53;;;3.78;;
35364;SDS011;21464;48.112;11.530;2023-07-13T00:12:43;4.28;;;3.88;;
35364;SDS011;21464;48.112;11.530;2023-07-13T00:15:14;3.65;;;3.35;;
35364;SDS011;21464;48.112;11.530;2023-07-13T00:17:49;4.00;;;3.60;;
35364;SDS011;21464;48.112;11.530;2023-07-13T00:20:16;4.18;;;3.78;;
35364;SDS011;21464;48.112;11.530;2023-07-13T00:22:42;4.00;;;3.38;;
35364;SDS011;21464;48.112;11.530;2023-07-13T00:25:12;4.80;;;3.60;;
35364;SDS011;21464;48.112;11.530;2023-07-13T00:27:38;3.53;;;3.22;;
35364;SDS011;21464;48.112;11.530;2023-07-13T00:30:04;3.50;;;3.20;;
35364;SDS011;21464;48.112;11.530;2023-07-13T00:32:31;3.58;;;3.10;;
35364;SDS011;21464;48.112;11.530;2023-07-13T00:34:59;5.65;;;3.47;;
35364;SDS011;21464;48.112;11.530;2023-07-13T00:37:26;3.78;;;3.10;;
35364;SDS011;21464;48.112;11.530;2023-07-13T00:39:52;3.58;;;3.15;;
35364;SDS011;21464;48.112;11.530;2023-07-13T00:42:18;2.95;;;2.75;;
35364;SDS011;21464;48.112;11.530;2023-07-13T00:47:53;3.08;;;2.78;;
35364;SDS011;21464;48.112;11.530;2023-07-13T00:50:21;3.90;;;2.72;;
35364;SDS011;21464;48.112;11.530;2023-07-13T00:52:48;3.22;;;2.92;;
35364;SDS011;21464;48.112;11.530;2023-07-13T00:55:16;3.35;;;3.05;;
35364;SDS011;21464;48.112;11.530;2023-07-13T00:57:43;2.55;;;2.40;;
35364;SDS011;21464;48.112;11.530;2023-07-13T01:00:10;3.13;;;2.50;;
35364;SDS011;21464;48.112;11.530;2023-07-13T01:02:41;3.50;;;2.70;;
35364;SDS011;21464;48.112;11.530;2023-07-13T01:05:09;2.60;;;2.40;;
35364;SDS011;21464;48.112;11.530;2023-07-13T01:07:36;4.03;;;2.63;;
35364;SDS011;21464;48.112;11.530;2023-07-13T01:10:03;2.78;;;2.58;;
35364;SDS011;21464;48.112;11.530;2023-07-13T01:12:29;3.00;;;2.72;;
35364;SDS011;21464;48.112;11.530;2023-07-13T01:14:57;3.13;;;2.60;;
35364;SDS011;21464;48.112;11.530;2023-07-13T01:17:24;3.35;;;2.70;;
35364;SDS011;21464;48.112;11.530;2023-07-13T01:19:50;2.90;;;2.70;;
35364;SDS011;21464;48.112;11.530;2023-07-13T01:22:17;3.00;;;2.80;;
35364;SDS011;21464;48.112;11.530;2023-07-13T01:24:44;2.53;;;2.33;;
35364;SDS011;21464;48.112;11.530;2023-07-13T01:27:13;2.88;;;2.60;;
35364;SDS011;21464;48.112;11.530;2023-07-13T01:29:41;3.35;;;2.92;;
35364;SDS011;21464;48.112;11.530;2023-07-13T01:32:10;3.22;;;2.90;;
35364;SDS011;21464;48.112;11.530;2023-07-13T01:34:38;2.85;;;2.58;;
35364;SDS011;21464;48.112;11.530;2023-07-13T01:37:11;2.63;;;2.42;;
35364;SDS011;21464;48.112;11.530;2023-07-13T01:39:38;3.25;;;2.97;;
35364;SDS011;21464;48.112;11.530;2023-07-13T01:42:04;3.67;;;2.60;;
35364;SDS011;21464;48.112;11.530;2023-07-13T01:44:30;3.60;;;2.80;;
35364;SDS011;21464;48.112;11.530;2023-07-13T01:46:57;3.30;;;3.10;;
35364;SDS011;21464;48.112;11.530;2023-07-13T01:49:23;3.78;;;3.00;;
35364;SDS011;21464;48.112;11.530;2023-07-13T01:51:50;4.82;;;3.40;;
35364;SDS011;21464;48.112;11.530;2023-07-13T01:54:16;4.82;;;3.13;;
35364;SDS011;21464;48.112;11.530;2023-07-13T01:56:43;3.65;;;3.38;;
35364;SDS011;21464;48.112;11.530;2023-07-13T01:59:09;3.22;;;2.95;;
35364;SDS011;21464;48.112;11.530;2023-07-13T02:01:35;3.47;;;3.17;;
35364;SDS011;21464;48.112;11.530;2023-07-13T02:04:02;5.13;;;3.35;;
35364;SDS011;21464;48.112;11.530;2023-07-13T02:06:32;4.10;;;3.70;;
35364;SDS011;21464;48.112;11.530;2023-07-13T02:08:58;3.55;;;3.30;;
35364;SDS011;21464;48.112;11.530;2023-07-13T02:11:25;3.92;;;3.63;;
35364;SDS011;21464;48.112;11.530;2023-07-13T02:14:02;3.67;;;3.38;;
35364;SDS011;21464;48.112;11.530;2023-07-13T02:16:28;4.15;;;3.60;;
35364;SDS011;21464;48.112;11.530;2023-07-13T02:18:55;3.17;;;2.97;;
35364;SDS011;21464;48.112;11.530;2023-07-13T02:21:22;4.90;;;3.85;;
35364;SDS011;21464;48.112;11.530;2023-07-13T02:23:50;4.53;;;3.75;;
35364;SDS011;21464;48.112;11.530;2023-07-13T02:26:16;4.00;;;3.45;;
35364;SDS011;21464;48.112;11.530;2023-07-13T02:28:42;3.80;;;3.25;;
35364;SDS011;21464;48.112;11.530;2023-07-13T02:31:10;3.58;;;3.28;;
35364;SDS011;21464;48.112;11.530;2023-07-13T02:33:37;3.83;;;3.10;;
35364;SDS011;21464;48.112;11.530;2023-07-13T02:36:04;3.40;;;3.00;;
35364;SDS011;21464;48.112;11.530;2023-07-13T02:38:32;3.78;;;3.47;;
35364;SDS011;21464;48.112;11.530;2023-07-13T02:41:06;4.97;;;3.83;;
35364;SDS011;21464;48.112;11.530;2023-07-13T02:43:32;3.30;;;3.10;;
35364;SDS011;21464;48.112;11.530;2023-07-13T02:45:59;3.38;;;3.10;;
35364;SDS011;21464;48.112;11.530;2023-07-13T02:48:30;4.40;;;3.50;;
35364;SDS011;21464;48.112;11.530;2023-07-13T02:50:57;4.15;;;3.78;;
35364;SDS011;21464;48.112;11.530;2023-07-13T02:53:24;6.28;;;3.80;;
35364;SDS011;21464;48.112;11.530;2023-07-13T02:55:50;5.82;;;4.15;;
35364;SDS011;21464;48.112;11.530;2023-07-13T02:58:16;6.82;;;4.97;;
35364;SDS011;21464;48.112;11.530;2023-07-13T03:00:43;5.97;;;4.15;;
35364;SDS011;21464;48.112;11.530;2023-07-13T03:03:15;5.82;;;4.95;;
35364;SDS011;21464;48.112;11.530;2023-07-13T03:05:43;5.50;;;5.00;;
35364;SDS011;21464;48.112;11.530;2023-07-13T03:08:18;5.03;;;4.53;;
35364;SDS011;21464;48.112;11.530;2023-07-13T03:10:46;4.63;;;3.90;;
35364;SDS011;21464;48.112;11.530;2023-07-13T03:13:13;5.68;;;4.45;;
35364;SDS011;21464;48.112;11.530;2023-07-13T03:15:39;5.30;;;4.80;;
35364;SDS011;21464;48.112;11.530;2023-07-13T03:18:05;4.88;;;4.40;;
35364;SDS011;21464;48.112;11.530;2023-07-13T03:20:33;6.22;;;4.55;;
35364;SDS011;21464;48.112;11.530;2023-07-13T03:23:01;4.00;;;3.70;;
35364;SDS011;21464;48.112;11.530;2023-07-13T03:25:28;4.38;;;3.97;;
35364;SDS011;21464;48.112;11.530;2023-07-13T03:27:54;4.57;;;4.03;;
35364;SDS011;21464;48.112;11.530;2023-07-13T03:30:22;4.10;;;3.70;;
35364;SDS011;21464;48.112;11.530;2023-07-13T03:32:49;4.53;;;3.25;;
35364;SDS011;21464;48.112;11.530;2023-07-13T03:35:17;4.05;;;3.65;;
35364;SDS011;21464;48.112;11.530;2023-07-13T03:37:44;3.85;;;3.50;;
35364;SDS011;21464;48.112;11.530;2023-07-13T03:40:15;3.70;;;3.38;;
35364;SDS011;21464;48.112;11.530;2023-07-13T03:42:44;3.92;;;3.53;;
35364;SDS011;21464;48.112;11.530;2023-07-13T03:45:10;3.92;;;3.58;;
35364;SDS011;21464;48.112;11.530;2023-07-13T03:47:36;6.43;;;4.00;;
35364;SDS011;21464;48.112;11.530;2023-07-13T03:50:04;5.40;;;4.05;;
35364;SDS011;21464;48.112;11.530;2023-07-13T03:52:31;5.47;;;4.30;;
35364;SDS011;21464;48.112;11.530;2023-07-13T03:54:57;5.57;;;4.22;;
35364;SDS011;21464;48.112;11.530;2023-07-13T03:57:24;5.95;;;4.00;;
35364;SDS011;21464;48.112;11.530;2023-07-13T03:59:50;5.10;;;3.88;;
35364;SDS011;21464;48.112;11.530;2023-07-13T04:02:16;4.45;;;3.53;;
35364;SDS011;21464;48.112;11.530;2023-07-13T04:04:43;4.03;;;3.60;;
35364;SDS011;21464;48.112;11.530;2023-07-13T04:07:09;4.15;;;3.60;;
35364;SDS011;21464;48.112;11.530;2023-07-13T04:09:38;3.28;;;2.95;;
35364;SDS011;21464;48.112;11.530;2023-07-13T04:12:04;5.13;;;3.67;;
35364;SDS011;21464;48.112;11.530;2023-07-13T04:14:31;5.63;;;3.72;;
35364;SDS011;21464;48.112;11.530;2023-07-13T04:16:57;5.68;;;4.72;;
35364;SDS011;21464;48.112;11.530;2023-07-13T04:19:23;4.75;;;4.22;;
35364;SDS011;21464;48.112;11.530;2023-07-13T04:21:49;5.95;;;4.22;;
35364;SDS011;21464;48.112;11.530;2023-07-13T04:24:15;5.68;;;4.00;;
35364;SDS011;21464;48.112;11.530;2023-07-13T04:26:41;4.22;;;3.58;;
35364;SDS011;21464;48.112;11.530;2023-07-13T04:29:07;4.10;;;3.75;;
35364;SDS011;21464;48.112;11.530;2023-07-13T04:31:34;6.22;;;5.10;;
35364;SDS011;21464;48.112;11.530;2023-07-13T04:34:00;5.82;;;3.45;;
35364;SDS011;21464;48.112;11.530;2023-07-13T04:36:26;3.90;;;3.50;;
35364;SDS011;21464;48.112;11.530;2023-07-13T04:38:52;4.93;;;3.88;;
35364;SDS011;21464;48.112;11.530;2023-07-13T04:41:20;4.22;;;3.28;;
35364;SDS011;21464;48.112;11.530;2023-07-13T04:43:47;5.18;;;3.75;;
35364;SDS011;21464;48.112;11.530;2023-07-13T04:46:14;3.80;;;3.40;;
35364;SDS011;21464;48.112;11.530;2023-07-13T04:48:43;4.07;;;3.45;;
35364;SDS011;21464;48.112;11.530;2023-07-13T04:51:09;5.80;;;4.40;;
35364;SDS011;21464;48.112;11.530;2023-07-13T04:53:35;3.65;;;3.03;;
35364;SDS011;21464;48.112;11.530;2023-07-13T04:56:02;4.30;;;3.40;;
35364;SDS011;21464;48.112;11.530;2023-07-13T04:58:29;5.80;;;3.75;;
35364;SDS011;21464;48.112;11.530;2023-07-13T05:00:59;5.55;;;3.50;;
35364;SDS011;21464;48.112;11.530;2023-07-13T05:03:26;5.38;;;3.38;;
35364;SDS011;21464;48.112;11.530;2023-07-13T05:06:00;3.53;;;3.22;;
35364;SDS011;21464;48.112;11.530;2023-07-13T05:08:28;3.97;;;3.58;;
35364;SDS011;21464;48.112;11.530;2023-07-13T05:10:54;4.85;;;3.25;;
35364;SDS011;21464;48.112;11.530;2023-07-13T05:13:20;3.95;;;3.53;;
35364;SDS011;21464;48.112;11.530;2023-07-13T05:15:47;5.25;;;3.13;;
35364;SDS011;21464;48.112;11.530;2023-07-13T05:18:21;3.50;;;2.97;;
35364;SDS011;21464;48.112;11.530;2023-07-13T05:20:47;3.33;;;2.88;;
35364;SDS011;21464;48.112;11.530;2023-07-13T05:23:22;3.42;;;3.05;;
35364;SDS011;21464;48.112;11.530;2023-07-13T05:25:48;4.03;;;3.00;;
35364;SDS011;21464;48.112;11.530;2023-07-13T05:28:14;3.90;;;3.25;;
35364;SDS011;21464;48.112;11.530;2023-07-13T05:30:44;3.40;;;2.92;;
35364;SDS011;21464;48.112;11.530;2023-07-13T05:33:12;3.47;;;3.03;;
35364;SDS011;21464;48.112;11.530;2023-07-13T05:35:38;4.20;;;3.28;;
35364;SDS011;21464;48.112;11.530;2023-07-13T05:38:04;3.47;;;3.17;;
35364;SDS011;21464;48.112;11.530;2023-07-13T05:40:31;4.30;;;3.13;;
35364;SDS011;21464;48.112;11.530;2023-07-13T05:42:57;4.93;;;3.40;;
35364;SDS011;21464;48.112;11.530;2023-07-13T05:45:23;4.32;;;3.50;;
35364;SDS011;21464;48.112;11.530;2023-07-13T05:47:49;4.35;;;3.60;;
35364;SDS011;21464;48.112;11.530;2023-07-13T05:50:15;4.88;;;4.40;;
35364;SDS011;21464;48.112;11.530;2023-07-13T05:52:42;5.30;;;3.65;;
35364;SDS011;21464;48.112;11.530;2023-07-13T05:55:08;4.20;;;3.38;;
35364;SDS011;21464;48.112;11.530;2023-07-13T05:57:34;5.55;;;3.47;;
35364;SDS011;21464;48.112;11.530;2023-07-13T06:00:00;8.32;;;3.72;;
35364;SDS011;21464;48.112;11.530;2023-07-13T06:02:27;3.58;;;3.28;;
35364;SDS011;21464;48.112;11.530;2023-07-13T06:04:53;4.10;;;3.58;;
35364;SDS011;21464;48.112;11.530;2023-07-13T06:07:19;3.92;;;3.53;;
35364;SDS011;21464;48.112;11.530;2023-07-13T06:09:46;4.47;;;3.10;;
35364;SDS011;21464;48.112;11.530;2023-07-13T06:12:12;3.55;;;3.22;;
35364;SDS011;21464;48.112;11.530;2023-07-13T06:14:38;4.70;;;3.13;;
35364;SDS011;21464;48.112;11.530;2023-07-13T06:17:04;4.25;;;3.53;;
35364;SDS011;21464;48.112;11.530;2023-07-13T06:19:31;3.53;;;3.22;;
35364;SDS011;21464;48.112;11.530;2023-07-13T06:21:57;5.00;;;3.55;;
35364;SDS011;21464;48.112;11.530;2023-07-13T06:24:24;6.47;;;4.00;;
35364;SDS011;21464;48.112;11.530;2023-07-13T06:26:51;5.25;;;3.13;;
35364;SDS011;21464;48.112;11.530;2023-07-13T06:29:17;3.67;;;2.95;;
35364;SDS011;21464;48.112;11.530;2023-07-13T06:31:43;4.78;;;3.17;;
35364;SDS011;21464;48.112;11.530;2023-07-13T06:34:09;4.50;;;3.42;;
35364;SDS011;21464;48.112;11.530;2023-07-13T06:36:36;5.45;;;3.45;;
35364;SDS011;21464;48.112;11.530;2023-07-13T06:39:04;3.90;;;3.60;;
35364;SDS011;21464;48.112;11.530;2023-07-13T06:41:30;3.00;;;2.80;;
35364;SDS011;21464;48.112;11.530;2023-07-13T06:43:57;4.75;;;3.10;;
35364;SDS011;21464;48.112;11.530;2023-07-13T06:46:24;4.05;;;3.35;;
35364;SDS011;21464;48.112;11.530;2023-07-13T06:48:50;3.60;;;3.30;;
35364;SDS011;21464;48.112;11.530;2023-07-13T06:51:16;3.47;;;3.17;;
35364;SDS011;21464;48.112;11.530;2023-07-13T06:53:43;3.85;;;3.15;;
35364;SDS011;21464;48.112;11.530;2023-07-13T06:56:10;3.50;;;3.20;;
35364;SDS011;21464;48.112;11.530;2023-07-13T06:58:36;4.50;;;3.00;;
35364;SDS011;21464;48.112;11.530;2023-07-13T07:01:03;3.72;;;3.30;;
35364;SDS011;21464;48.112;11.530;2023-07-13T07:03:35;5.40;;;3.03;;
35364;SDS011;21464;48.112;11.530;2023-07-13T07:06:03;3.80;;;3.10;;
35364;SDS011;21464;48.112;11.530;2023-07-13T07:08:35;3.47;;;2.95;;
35364;SDS011;21464;48.112;11.530;2023-07-13T07:11:01;3.05;;;2.78;;
35364;SDS011;21464;48.112;11.530;2023-07-13T07:13:27;3.22;;;2.88;;
35364;SDS011;21464;48.112;11.530;2023-07-13T07:15:54;3.42;;;3.15;;
35364;SDS011;21464;48.112;11.530;2023-07-13T07:18:20;4.25;;;3.00;;
35364;SDS011;21464;48.112;11.530;2023-07-13T07:20:46;5.88;;;3.08;;
35364;SDS011;21464;48.112;11.530;2023-07-13T07:23:14;3.40;;;2.60;;
35364;SDS011;21464;48.112;11.530;2023-07-13T07:25:42;3.03;;;2.53;;
35364;SDS011;21464;48.112;11.530;2023-07-13T07:28:09;2.88;;;2.63;;
35364;SDS011;21464;48.112;11.530;2023-07-13T07:30:36;5.53;;;3.17;;
35364;SDS011;21464;48.112;11.530;2023-07-13T07:33:03;4.20;;;3.05;;
35364;SDS011;21464;48.112;11.530;2023-07-13T07:35:29;3.60;;;2.88;;
35364;SDS011;21464;48.112;11.530;2023-07-13T07:37:56;4.00;;;2.83;;
35364;SDS011;21464;48.112;11.530;2023-07-13T07:40:22;4.57;;;3.00;;
35364;SDS011;21464;48.112;11.530;2023-07-13T07:42:48;3.08;;;2.75;;
35364;SDS011;21464;48.112;11.530;2023-07-13T07:45:14;3.67;;;2.95;;
35364;SDS011;21464;48.112;11.530;2023-07-13T07:47:40;3.42;;;2.83;;
35364;SDS011;21464;48.112;11.530;2023-07-13T07:50:07;4.18;;;3.20;;
35364;SDS011;21464;48.112;11.530;2023-07-13T07:52:33;4.32;;;2.97;;
35364;SDS011;21464;48.112;11.530;2023-07-13T07:54:59;4.53;;;3.30;;
35364;SDS011;21464;48.112;11.530;2023-07-13T07:57:26;6.05;;;3.30;;
35364;SDS011;21464;48.112;11.530;2023-07-13T07:59:52;4.25;;;3.38;;
35364;SDS011;21464;48.112;11.530;2023-07-13T08:02:18;3.75;;;3.33;;
35364;SDS011;21464;48.112;11.530;2023-07-13T08:04:45;6.25;;;3.28;;
35364;SDS011;21464;48.112;11.530;2023-07-13T08:07:11;5.85;;;3.33;;
35364;SDS011;21464;48.112;11.530;2023-07-13T08:09:37;6.72;;;3.22;;
35364;SDS011;21464;48.112;11.530;2023-07-13T08:12:03;6.28;;;3.75;;
35364;SDS011;21464;48.112;11.530;2023-07-13T08:14:30;5.57;;;3.80;;
35364;SDS011;21464;48.112;11.530;2023-07-13T08:16:56;4.95;;;3.53;;
35364;SDS011;21464;48.112;11.530;2023-07-13T08:19:23;4.82;;;3.50;;
35364;SDS011;21464;48.112;11.530;2023-07-13T08:21:49;5.30;;;3.55;;
35364;SDS011;21464;48.112;11.530;2023-07-13T08:24:15;6.45;;;3.63;;
35364;SDS011;21464;48.112;11.530;2023-07-13T08:26:44;4.57;;;3.20;;
35364;SDS011;21464;48.112;11.530;2023-07-13T08:29:12;4.50;;;3.47;;
35364;SDS011;21464;48.112;11.530;2023-07-13T08:31:38;5.95;;;3.55;;
35364;SDS011;21464;48.112;11.530;2023-07-13T08:34:04;4.45;;;3.45;;
35364;SDS011;21464;48.112;11.530;2023-07-13T08:36:30;3.95;;;3.53;;
35364;SDS011;21464;48.112;11.530;2023-07-13T08:38:56;5.07;;;3.90;;
35364;SDS011;21464;48.112;11.530;2023-07-13T08:41:23;4.45;;;3.70;;
35364;SDS011;21464;48.112;11.530;2023-07-13T08:43:50;4.35;;;3.30;;
35364;SDS011;21464;48.112;11.530;2023-07-13T08:49:02;4.57;;;3.30;;
35364;SDS011;21464;48.112;11.530;2023-07-13T08:51:35;5.32;;;3.58;;
35364;SDS011;21464;48.112;11.530;2023-07-13T08:54:09;3.97;;;3.40;;
35364;SDS011;21464;48.112;11.530;2023-07-13T08:56:55;3.45;;;3.13;;
35364;SDS011;21464;48.112;11.530;2023-07-13T08:59:24;5.22;;;3.72;;
35364;SDS011;21464;48.112;11.530;2023-07-13T09:04:28;6.28;;;3.55;;
35364;SDS011;21464;48.112;11.530;2023-07-13T09:06:59;7.68;;;3.65;;
35364;SDS011;21464;48.112;11.530;2023-07-13T09:12:22;3.72;;;2.95;;
35364;SDS011;21464;48.112;11.530;2023-07-13T09:14:51;5.85;;;4.18;;
35364;SDS011;21464;48.112;11.530;2023-07-13T09:17:26;4.25;;;2.70;;
35364;SDS011;21464;48.112;11.530;2023-07-13T09:22:44;5.40;;;3.10;;
35364;SDS011;21464;48.112;11.530;2023-07-13T09:25:20;6.78;;;3.40;;
35364;SDS011;21464;48.112;11.530;2023-07-13T09:27:53;3.95;;;2.83;;
35364;SDS011;21464;48.112;11.530;2023-07-13T09:30:25;3.03;;;2.75;;
35364;SDS011;21464;48.112;11.530;2023-07-13T09:32:57;5.80;;;2.50;;
35364;SDS011;21464;48.112;11.530;2023-07-13T09:35:28;3.67;;;2.50;;
35364;SDS011;21464;48.112;11.530;2023-07-13T09:38:14;7.60;;;3.05;;
35364;SDS011;21464;48.112;11.530;2023-07-13T09:40:44;4.43;;;2.67;;
35364;SDS011;21464;48.112;11.530;2023-07-13T09:43:16;4.85;;;2.55;;
35364;SDS011;21464;48.112;11.530;2023-07-13T09:45:44;3.63;;;2.33;;
35364;SDS011;21464;48.112;11.530;2023-07-13T09:48:12;4.55;;;2.83;;
35364;SDS011;21464;48.112;11.530;2023-07-13T09:50:41;3.05;;;2.67;;
35364;SDS011;21464;48.112;11.530;2023-07-13T09:53:15;4.30;;;2.50;;
35364;SDS011;21464;48.112;11.530;2023-07-13T09:55:44;4.72;;;2.88;;
35364;SDS011;21464;48.112;11.530;2023-07-13T10:00:38;2.72;;;2.50;;
35364;SDS011;21464;48.112;11.530;2023-07-13T10:03:14;4.80;;;3.00;;
35364;SDS011;21464;48.112;11.530;2023-07-13T10:05:44;4.10;;;2.63;;
35364;SDS011;21464;48.112;11.530;2023-07-13T10:08:16;3.95;;;3.25;;
35364;SDS011;21464;48.112;11.530;2023-07-13T10:10:44;5.95;;;3.40;;
35364;SDS011;21464;48.112;11.530;2023-07-13T10:13:31;4.40;;;3.08;;
35364;SDS011;21464;48.112;11.530;2023-07-13T10:16:00;6.68;;;2.70;;
35364;SDS011;21464;48.112;11.530;2023-07-13T10:18:27;5.25;;;2.40;;
35364;SDS011;21464;48.112;11.530;2023-07-13T10:20:58;4.43;;;2.30;;
35364;SDS011;21464;48.112;11.530;2023-07-13T10:23:35;3.28;;;2.00;;
35364;SDS011;21464;48.112;11.530;2023-07-13T10:26:01;2.83;;;2.22;;
35364;SDS011;21464;48.112;11.530;2023-07-13T10:28:35;3.65;;;2.17;;
35364;SDS011;21464;48.112;11.530;2023-07-13T10:31:04;3.35;;;1.85;;
35364;SDS011;21464;48.112;11.530;2023-07-13T10:33:32;2.13;;;1.63;;
35364;SDS011;21464;48.112;11.530;2023-07-13T10:36:05;3.90;;;1.70;;
35364;SDS011;21464;48.112;11.530;2023-07-13T10:38:53;2.80;;;1.90;;
35364;SDS011;21464;48.112;11.530;2023-07-13T10:41:21;4.68;;;2.08;;
35364;SDS011;21464;48.112;11.530;2023-07-13T10:43:52;4.47;;;2.10;;
35364;SDS011;21464;48.112;11.530;2023-07-13T10:46:20;4.28;;;1.80;;
35364;SDS011;21464;48.112;11.530;2023-07-13T10:48:51;3.20;;;1.50;;
35364;SDS011;21464;48.112;11.530;2023-07-13T10:51:19;2.50;;;1.50;;
35364;SDS011;21464;48.112;11.530;2023-07-13T10:54:11;2.00;;;1.85;;
35364;SDS011;21464;48.112;11.530;2023-07-13T10:56:53;3.47;;;2.08;;
35364;SDS011;21464;48.112;11.530;2023-07-13T10:59:48;2.92;;;2.20;;
35364;SDS011;21464;48.112;11.530;2023-07-13T11:02:35;2.28;;;1.88;;
35364;SDS011;21464;48.112;11.530;2023-07-13T11:05:13;4.40;;;2.22;;
35364;SDS011;21464;48.112;11.530;2023-07-13T11:08:02;5.00;;;1.60;;
35364;SDS011;21464;48.112;11.530;2023-07-13T11:18:50;4.03;;;1.65;;
35364;SDS011;21464;48.112;11.530;2023-07-13T11:23:45;2.17;;;1.67;;
35364;SDS011;21464;48.112;11.530;2023-07-13T11:31:52;1.60;;;1.50;;
35364;SDS011;21464;48.112;11.530;2023-07-13T11:34:36;4.47;;;1.90;;
35364;SDS011;21464;48.112;11.530;2023-07-13T11:37:08;3.30;;;1.90;;
35364;SDS011;21464;48.112;11.530;2023-07-13T11:39:37;3.28;;;2.38;;
35364;SDS011;21464;48.112;11.530;2023-07-13T11:42:08;3.28;;;2.10;;
35364;SDS011;21464;48.112;11.530;2023-07-13T11:44:41;4.05;;;2.28;;
35364;SDS011;21464;48.112;11.530;2023-07-13T11:47:18;2.17;;;1.83;;
35364;SDS011;21464;48.112;11.530;2023-07-13T11:49:52;2.08;;;1.70;;
35364;SDS011;21464;48.112;11.530;2023-07-13T11:52:23;4.43;;;1.90;;
35364;SDS011;21464;48.112;11.530;2023-07-13T11:54:55;2.55;;;1.50;;
35364;SDS011;21464;48.112;11.530;2023-07-13T11:57:37;1.80;;;1.70;;
35364;SDS011;21464;48.112;11.530;2023-07-13T12:00:11;2.42;;;1.75;;
35364;SDS011;21464;48.112;11.530;2023-07-13T12:02:42;4.07;;;1.70;;
35364;SDS011;21464;48.112;11.530;2023-07-13T12:05:11;1.63;;;1.48;;
35364;SDS011;21464;48.112;11.530;2023-07-13T12:07:39;2.58;;;1.70;;
35364;SDS011;21464;48.112;11.530;2023-07-13T12:12:40;2.83;;;1.60;;
35364;SDS011;21464;48.112;11.530;2023-07-13T12:15:12;3.75;;;2.00;;
35364;SDS011;21464;48.112;11.530;2023-07-13T12:17:39;7.40;;;1.65;;
35364;SDS011;21464;48.112;11.530;2023-07-13T12:22:53;1.73;;;1.55;;
35364;SDS011;21464;48.112;11.530;2023-07-13T12:25:19;2.58;;;1.80;;
35364;SDS011;21464;48.112;11.530;2023-07-13T12:27:47;4.78;;;1.80;;
35364;SDS011;21464;48.112;11.530;2023-07-13T12:30:26;2.53;;;1.67;;
35364;SDS011;21464;48.112;11.530;2023-07-13T12:33:01;3.90;;;1.88;;
35364;SDS011;21464;48.112;11.530;2023-07-13T12:35:39;1.88;;;1.52;;
35364;SDS011;21464;48.112;11.530;2023-07-13T12:38:08;2.17;;;1.70;;
35364;SDS011;21464;48.112;11.530;2023-07-13T12:40:36;2.85;;;2.30;;
35364;SDS011;21464;48.112;11.530;2023-07-13T12:43:03;5.85;;;1.80;;
35364;SDS011;21464;48.112;11.530;2023-07-13T12:45:32;6.00;;;2.38;;
35364;SDS011;21464;48.112;11.530;2023-07-13T12:48:03;2.22;;;1.70;;
35364;SDS011;21464;48.112;11.530;2023-07-13T12:50:36;2.75;;;1.65;;
35364;SDS011;21464;48.112;11.530;2023-07-13T12:53:05;1.85;;;1.75;;
35364;SDS011;21464;48.112;11.530;2023-07-13T12:56:11;3.28;;;2.05;;
35364;SDS011;21464;48.112;11.530;2023-07-13T12:58:35;2.22;;;1.73;;
35364;SDS011;21464;48.112;11.530;2023-07-13T13:01:04;2.55;;;1.70;;
35364;SDS011;21464;48.112;11.530;2023-07-13T13:03:38;2.40;;;1.58;;
35364;SDS011;21464;48.112;11.530;2023-07-13T13:06:28;4.18;;;1.88;;
35364;SDS011;21464;48.112;11.530;2023-07-13T13:08:55;2.53;;;2.05;;
35364;SDS011;21464;48.112;11.530;2023-07-13T13:11:24;3.40;;;1.55;;
35364;SDS011;21464;48.112;11.530;2023-07-13T13:13:51;2.30;;;1.65;;
35364;SDS011;21464;48.112;11.530;2023-07-13T13:18:59;2.33;;;1.70;;
35364;SDS011;21464;48.112;11.530;2023-07-13T13:21:28;3.65;;;1.70;;
35364;SDS011;21464;48.112;11.530;2023-07-13T13:23:54;2.45;;;1.50;;
35364;SDS011;21464;48.112;11.530;2023-07-13T13:26:21;1.63;;;1.48;;
35364;SDS011;21464;48.112;11.530;2023-07-13T13:28:48;2.17;;;1.58;;
35364;SDS011;21464;48.112;11.530;2023-07-13T13:31:14;2.80;;;1.50;;
35364;SDS011;21464;48.112;11.530;2023-07-13T13:33:41;3.22;;;1.70;;
35364;SDS011;21464;48.112;11.530;2023-07-13T13:36:14;2.20;;;1.65;;
35364;SDS011;21464;48.112;11.530;2023-07-13T13:38:45;1.60;;;1.50;;
35364;SDS011;21464;48.112;11.530;2023-07-13T13:41:12;3.55;;;1.30;;
35364;SDS011;21464;48.112;11.530;2023-07-13T13:43:40;1.50;;;1.40;;
35364;SDS011;21464;48.112;11.530;2023-07-13T13:46:14;1.60;;;1.45;;
35364;SDS011;21464;48.112;11.530;2023-07-13T13:48:42;2.22;;;1.50;;
35364;SDS011;21464;48.112;11.530;2023-07-13T13:51:16;1.55;;;1.40;;
35364;SDS011;21464;48.112;11.530;2023-07-13T13:53:42;3.90;;;1.40;;
35364;SDS011;21464;48.112;11.530;2023-07-13T13:56:09;2.47;;;1.80;;
35364;SDS011;21464;48.112;11.530;2023-07-13T13:58:35;2.33;;;1.30;;
35364;SDS011;21464;48.112;11.530;2023-07-13T14:01:02;2.35;;;1.80;;
35364;SDS011;21464;48.112;11.530;2023-07-13T14:03:32;1.73;;;1.40;;
35364;SDS011;21464;48.112;11.530;2023-07-13T14:05:58;3.45;;;1.50;;
35364;SDS011;21464;48.112;11.530;2023-07-13T14:08:24;1.77;;;1.40;;
35364;SDS011;21464;48.112;11.530;2023-07-13T14:10:51;1.58;;;1.45;;
35364;SDS011;21464;48.112;11.530;2023-07-13T14:13:23;3.35;;;1.60;;
35364;SDS011;21464;48.112;11.530;2023-07-13T14:16:02;2.22;;;1.40;;
35364;SDS011;21464;48.112;11.530;2023-07-13T14:18:28;2.88;;;1.60;;
35364;SDS011;21464;48.112;11.530;2023-07-13T14:20:55;2.85;;;1.50;;
35364;SDS011;21464;48.112;11.530;2023-07-13T14:23:21;1.90;;;1.60;;
35364;SDS011;21464;48.112;11.530;2023-07-13T14:25:47;1.55;;;1.30;;
35364;SDS011;21464;48.112;11.530;2023-07-13T14:28:21;3.00;;;1.60;;
35364;SDS011;21464;48.112;11.530;2023-07-13T14:30:48;1.40;;;1.30;;
35364;SDS011;21464;48.112;11.530;2023-07-13T14:33:14;1.65;;;1.55;;
35364;SDS011;21464;48.112;11.530;2023-07-13T14:35:41;2.53;;;1.70;;
35364;SDS011;21464;48.112;11.530;2023-07-13T14:38:09;1.83;;;1.52;;
35364;SDS011;21464;48.112;11.530;2023-07-13T14:40:38;2.53;;;1.90;;
35364;SDS011;21464;48.112;11.530;2023-07-13T14:43:07;2.00;;;1.70;;
35364;SDS011;21464;48.112;11.530;2023-07-13T14:45:38;4.10;;;1.95;;
35364;SDS011;21464;48.112;11.530;2023-07-13T14:48:19;2.45;;;2.20;;
35364;SDS011;21464;48.112;11.530;2023-07-13T14:50:49;2.40;;;1.77;;
35364;SDS011;21464;48.112;11.530;2023-07-13T14:53:19;2.35;;;2.15;;
35364;SDS011;21464;48.112;11.530;2023-07-13T14:55:45;3.13;;;2.13;;
35364;SDS011;21464;48.112;11.530;2023-07-13T14:58:12;2.80;;;1.70;;
35364;SDS011;21464;48.112;11.530;2023-07-13T15:00:39;1.90;;;1.70;;
35364;SDS011;21464;48.112;11.530;2023-07-13T15:03:08;3.83;;;3.40;;
35364;SDS011;21464;48.112;11.530;2023-07-13T15:05:45;3.08;;;2.58;;
35364;SDS011;21464;48.112;11.530;2023-07-13T15:08:11;2.28;;;1.83;;
35364;SDS011;21464;48.112;11.530;2023-07-13T15:10:37;2.88;;;1.58;;
35364;SDS011;21464;48.112;11.530;2023-07-13T15:13:17;1.67;;;1.50;;
35364;SDS011;21464;48.112;11.530;2023-07-13T15:15:48;3.22;;;1.75;;
35364;SDS011;21464;48.112;11.530;2023-07-13T15:18:16;2.55;;;1.70;;
35364;SDS011;21464;48.112;11.530;2023-07-13T15:20:44;3.90;;;2.80;;
35364;SDS011;21464;48.112;11.530;2023-07-13T15:23:12;4.65;;;3.97;;